La Partenais — 9HA4029 — position and weather

sailwx.info

Track history (hours):
 
Tides and Currents Weather Stations Pressure Air Temp Water Temp Dewpoint Dewpoint Depression Visibility Wind Speed Wind Dir Waves Ship Positions

La Partenais

Last reported at 2017-Sep-20 12:10 UTC. Time now 2017-Nov-18 17:57 UTC.
Position N 26°19' W 016°03'.
Warning: this ship's position is 59 days out of date.

Length 180 m; draft 10.1 m.

Type: Cargo ship. MMSI: 256892000.

Date/timePositionNaut miles runAvg speedWind from/ knotsBaromVisibWave heightAir tempDewpointWater temp
2017-Sep-20 12:10N 26°19' W 016°03'5112.3
2017-Sep-20 08:00N 27°06' W 015°39'1512.7
2017-Sep-20 06:48N 27°20' W 015°32'2413.1
2017-Sep-20 04:58N 27°41' W 015°20'714.3
2017-Sep-20 04:29N 27°47' W 015°16'714.2
2017-Sep-20 04:00N 27°54' W 015°15'713.6
2017-Sep-20 03:30N 28°01' W 015°15'612.2
2017-Sep-20 03:00N 28°05' W 015°20'4 7.3
2017-Sep-20 02:30N 28°06' W 015°24'0 0.2
2017-Sep-20 01:49N 28°06' W 015°24'0 0.0
2017-Sep-20 01:31N 28°06' W 015°24'0 0.0
2017-Sep-20 01:01N 28°06' W 015°24'0 0.0
2017-Sep-20 00:31N 28°06' W 015°24'0 0.0
2017-Sep-19 23:52N 28°06' W 015°24'0 0.0
2017-Sep-19 23:22N 28°06' W 015°24'0 0.0
2017-Sep-19 22:52N 28°06' W 015°24'0 0.1
2017-Sep-19 22:25N 28°06' W 015°24'0 0.0
2017-Sep-19 21:55N 28°06' W 015°24'0 0.0
2017-Sep-19 21:25N 28°06' W 015°24'0 0.0
2017-Sep-19 20:55N 28°06' W 015°24'0 0.0
2017-Sep-19 20:25N 28°06' W 015°24'0 0.0
2017-Sep-19 19:43N 28°06' W 015°24'0 0.0
2017-Sep-19 19:28N 28°06' W 015°24'0 0.0
2017-Sep-19 18:58N 28°06' W 015°24'0 0.0
2017-Sep-19 18:28N 28°06' W 015°24'0 0.0
2017-Sep-19 17:58N 28°06' W 015°24'0 0.4
2017-Sep-19 17:30N 28°06' W 015°24'2 3.8
2017-Sep-19 17:00N 28°08' W 015°23'1 1.2
2017-Sep-19 16:30N 28°07' W 015°22'4 8.0
2017-Sep-19 16:00N 28°10' W 015°19'713.2
2017-Sep-19 15:30N 28°15' W 015°14'713.1
2017-Sep-19 15:00N 28°20' W 015°08'612.9
2017-Sep-19 14:30N 28°26' W 015°06'612.9
2017-Sep-19 14:00N 28°32' W 015°04'713.1
2017-Sep-19 13:30N 28°38' W 015°02'713.3
2017-Sep-19 13:00N 28°45' W 014°59'613.2
2017-Sep-19 12:31N 28°51' W 014°57'712.9
2017-Sep-19 12:00N 28°57' W 014°55'612.7
2017-Sep-19 11:30N 29°03' W 014°54'712.8
2017-Sep-19 10:58N 29°10' W 014°52'612.7
2017-Sep-19 10:30N 29°16' W 014°50'612.9
2017-Sep-19 10:00N 29°22' W 014°48'713.1
2017-Sep-19 09:30N 29°28' W 014°46'713.4
2017-Sep-19 09:00N 29°35' W 014°44'613.2
2017-Sep-19 08:30N 29°41' W 014°42'613.0
2017-Sep-19 08:00N 29°47' W 014°40'612.9
2017-Sep-19 07:30N 29°53' W 014°37'913.1
2017-Sep-19 06:49N 30°02' W 014°35'412.9
2017-Sep-19 06:30N 30°06' W 014°34'713.1
2017-Sep-19 06:00N 30°12' W 014°32'1013.1
2017-Sep-19 05:13N 30°22' W 014°29'513.2
2017-Sep-19 04:52N 30°27' W 014°27'4113.2
2017-Sep-19 01:43N 31°07' W 014°14'313.1
2017-Sep-19 01:31N 31°09' W 014°13'813.1
2017-Sep-19 00:52N 31°17' W 014°10'613.2
2017-Sep-19 00:27N 31°23' W 014°09'1813.6
2017-Sep-18 23:10N 31°40' W 014°03'513.4
2017-Sep-18 22:48N 31°44' W 014°01'  
2017-Sep-15 07:24N 46°03' W 001°55'711.8
2017-Sep-15 06:49N 46°06' W 001°46'411.5
2017-Sep-15 06:29N 46°07' W 001°41'511.1
2017-Sep-15 06:00N 46°07' W 001°33'612.1
2017-Sep-15 05:30N 46°07' W 001°25'510.8
2017-Sep-15 05:00N 46°06' W 001°17'4 7.1
2017-Sep-15 04:30N 46°09' W 001°14'1 1.0
2017-Sep-15 03:59N 46°10' W 001°14'0 0.0
2017-Sep-15 03:26N 46°10' W 001°14'0 0.0
2017-Sep-15 02:59N 46°10' W 001°14'0 0.0
2017-Sep-15 02:29N 46°10' W 001°14'0 0.0
2017-Sep-15 01:59N 46°10' W 001°14'0 0.0
2017-Sep-15 01:29N 46°10' W 001°14'0 0.0
2017-Sep-15 00:56N 46°10' W 001°14'0 0.0
2017-Sep-15 00:29N 46°10' W 001°14'0 0.0
2017-Sep-14 23:59N 46°10' W 001°14'0 0.0
2017-Sep-14 23:29N 46°10' W 001°14'0 0.0
2017-Sep-14 22:59N 46°10' W 001°14'0 0.0
2017-Sep-14 22:29N 46°10' W 001°14'0 0.0
2017-Sep-14 21:59N 46°10' W 001°14'0 0.0
2017-Sep-14 21:29N 46°10' W 001°14'0 0.0
2017-Sep-14 20:59N 46°10' W 001°14'0 0.0
2017-Sep-14 20:29N 46°10' W 001°14'0 0.0
2017-Sep-14 19:59N 46°10' W 001°14'0 0.0
2017-Sep-14 19:29N 46°10' W 001°14'0 0.0
2017-Sep-14 18:59N 46°10' W 001°14'0 0.0
2017-Sep-14 18:29N 46°10' W 001°14'0 0.0
2017-Sep-14 17:56N 46°10' W 001°14'0 0.0
2017-Sep-14 17:23N 46°10' W 001°14'0 0.0
2017-Sep-14 16:59N 46°10' W 001°14'0 0.0
2017-Sep-14 16:23N 46°10' W 001°14'0 0.0
2017-Sep-14 15:59N 46°10' W 001°14'0 0.0
2017-Sep-14 15:29N 46°10' W 001°14'0 0.0
2017-Sep-14 14:59N 46°10' W 001°14'0 0.0
2017-Sep-14 14:29N 46°10' W 001°14'0 0.0
2017-Sep-14 13:59N 46°10' W 001°14'0 0.0
2017-Sep-14 13:29N 46°10' W 001°14'0 0.0
2017-Sep-14 12:59N 46°10' W 001°14'0 0.0
2017-Sep-14 12:29N 46°10' W 001°14'0 0.0
2017-Sep-14 11:59N 46°10' W 001°14'0 0.0
2017-Sep-14 11:29N 46°10' W 001°14'0 0.0
2017-Sep-14 10:59N 46°10' W 001°14'0 0.0
2017-Sep-14 10:29N 46°10' W 001°14'0 0.0
2017-Sep-14 09:59N 46°10' W 001°14'0 0.0
2017-Sep-14 09:29N 46°10' W 001°14'0 0.0
2017-Sep-14 08:59N 46°10' W 001°14'0 0.0
2017-Sep-14 08:29N 46°10' W 001°14'0 0.0
2017-Sep-14 07:59N 46°10' W 001°14'0 0.0
2017-Sep-14 07:29N 46°10' W 001°14'0 0.0
2017-Sep-14 06:59N 46°09' W 001°14'0 0.0
2017-Sep-14 06:29N 46°10' W 001°14'0 0.0
2017-Sep-14 05:56N 46°10' W 001°14'0 0.0
2017-Sep-14 05:26N 46°10' W 001°14'0 0.0
2017-Sep-14 04:59N 46°10' W 001°14'0 0.0
2017-Sep-14 04:26N 46°10' W 001°14'0 0.0
2017-Sep-14 03:59N 46°09' W 001°14'0 0.0
2017-Sep-14 03:23N 46°09' W 001°14'0 0.0
2017-Sep-14 02:59N 46°10' W 001°14'0 0.0
2017-Sep-14 02:29N 46°10' W 001°14'0 0.0
2017-Sep-14 01:59N 46°10' W 001°14'0 0.0
2017-Sep-14 01:26N 46°10' W 001°14'0 0.0
2017-Sep-14 00:59N 46°10' W 001°14'0 0.0
2017-Sep-14 00:29N 46°10' W 001°14'0 0.0
2017-Sep-13 23:59N 46°10' W 001°14'0 0.0
2017-Sep-13 23:29N 46°10' W 001°14'0 0.0
2017-Sep-13 22:59N 46°10' W 001°14'0 0.0
2017-Sep-13 22:29N 46°10' W 001°14'0 0.0
2017-Sep-13 21:59N 46°09' W 001°14'0 0.0
2017-Sep-13 21:29N 46°10' W 001°14'0 0.0
2017-Sep-13 20:59N 46°10' W 001°14'0 0.0
2017-Sep-13 20:29N 46°10' W 001°14'0 0.0
2017-Sep-13 19:59N 46°10' W 001°14'0 0.0
2017-Sep-13 19:29N 46°09' W 001°14'0 0.0
2017-Sep-13 18:53N 46°10' W 001°14'0 0.0
2017-Sep-13 18:26N 46°10' W 001°14'0 0.0
2017-Sep-13 17:59N 46°10' W 001°14'0 0.0
2017-Sep-13 17:29N 46°10' W 001°14'0 0.0
2017-Sep-13 16:59N 46°10' W 001°14'0 0.0
2017-Sep-13 16:29N 46°10' W 001°14'0 0.0
2017-Sep-13 15:59N 46°10' W 001°14'0 0.0
2017-Sep-13 15:29N 46°10' W 001°14'0 0.0
2017-Sep-13 14:59N 46°10' W 001°14'0 0.0
2017-Sep-13 14:23N 46°10' W 001°14'0 0.0
2017-Sep-13 13:59N 46°10' W 001°14'0 0.0
2017-Sep-13 13:29N 46°10' W 001°14'0 0.0
2017-Sep-13 12:59N 46°10' W 001°14'0 0.0
2017-Sep-13 12:29N 46°09' W 001°14'0 0.0
2017-Sep-13 11:59N 46°10' W 001°14'0 0.0
2017-Sep-13 11:29N 46°10' W 001°14'0 0.0
2017-Sep-13 10:59N 46°10' W 001°14'0 0.0
2017-Sep-13 10:29N 46°10' W 001°14'0 0.0
2017-Sep-13 09:59N 46°10' W 001°14'0 0.0
2017-Sep-13 09:26N 46°10' W 001°14'0 0.0
2017-Sep-13 08:59N 46°10' W 001°14'0 0.0
2017-Sep-13 08:29N 46°10' W 001°14'0 0.0
2017-Sep-13 07:59N 46°10' W 001°14'0 0.0
2017-Sep-13 07:29N 46°10' W 001°14'0 0.0
2017-Sep-13 06:59N 46°10' W 001°14'0 0.0
2017-Sep-13 06:29N 46°10' W 001°14'0 0.0
2017-Sep-13 05:59N 46°10' W 001°14'0 0.0
2017-Sep-13 05:29N 46°10' W 001°14'0 0.0
2017-Sep-13 04:59N 46°10' W 001°14'0 0.0
2017-Sep-13 04:29N 46°10' W 001°14'0 0.0
2017-Sep-13 03:59N 46°10' W 001°14'0 0.0
2017-Sep-13 03:29N 46°10' W 001°14'0 0.0
2017-Sep-13 02:59N 46°10' W 001°14'0 0.0
2017-Sep-13 02:29N 46°10' W 001°14'0 0.0
2017-Sep-13 01:59N 46°10' W 001°14'0 0.0
2017-Sep-13 01:29N 46°10' W 001°14'0 0.0
2017-Sep-13 00:59N 46°10' W 001°14'0 0.0
2017-Sep-13 00:26N 46°10' W 001°14'0 0.0
2017-Sep-12 23:59N 46°10' W 001°14'0 0.0
2017-Sep-12 23:29N 46°10' W 001°14'0 0.0
2017-Sep-12 22:59N 46°10' W 001°14'0 0.0
2017-Sep-12 22:29N 46°10' W 001°14'0 0.0
2017-Sep-12 21:59N 46°10' W 001°14'0 0.0
2017-Sep-12 21:29N 46°10' W 001°14'0 0.0
2017-Sep-12 20:59N 46°10' W 001°14'0 0.0
2017-Sep-12 20:29N 46°10' W 001°14'0 0.0
2017-Sep-12 19:59N 46°10' W 001°14'0 0.0
2017-Sep-12 19:29N 46°10' W 001°14'0 0.0
2017-Sep-12 18:59N 46°10' W 001°14'0 0.0
2017-Sep-12 18:29N 46°10' W 001°14'0 0.0
2017-Sep-12 17:59N 46°09' W 001°14'0 0.0
2017-Sep-12 17:14N 46°10' W 001°14'0 0.0
2017-Sep-12 16:56N 46°10' W 001°14'0 0.0
2017-Sep-12 16:29N 46°10' W 001°14'0 0.0
2017-Sep-12 15:56N 46°10' W 001°14'0 0.0
2017-Sep-12 15:26N 46°10' W 001°14'0 0.0
2017-Sep-12 14:59N 46°10' W 001°14'0 0.0
2017-Sep-12 14:29N 46°10' W 001°14'0 0.0
2017-Sep-12 13:59N 46°10' W 001°14'0 0.0
2017-Sep-12 13:29N 46°10' W 001°14'0 0.0
2017-Sep-12 12:59N 46°10' W 001°14'0 0.0
2017-Sep-12 12:29N 46°10' W 001°14'0 0.0
2017-Sep-12 11:59N 46°10' W 001°14'0 0.0
2017-Sep-12 11:26N 46°10' W 001°14'0 0.0
2017-Sep-12 10:59N 46°10' W 001°14'0 0.0
2017-Sep-12 10:26N 46°10' W 001°14'0 0.0
2017-Sep-12 09:59N 46°10' W 001°14'0 0.0
2017-Sep-12 09:29N 46°10' W 001°14'0 0.0
2017-Sep-12 08:59N 46°10' W 001°14'0 0.0
2017-Sep-12 08:29N 46°10' W 001°14'0 0.0
2017-Sep-12 07:59N 46°10' W 001°14'0 0.0
2017-Sep-12 07:29N 46°10' W 001°14'0 0.0
2017-Sep-12 06:59N 46°09' W 001°14'0 0.0
2017-Sep-12 06:29N 46°10' W 001°14'0 0.0
2017-Sep-12 05:59N 46°10' W 001°14'0 0.0
2017-Sep-12 05:29N 46°10' W 001°14'0 0.0
2017-Sep-12 04:59N 46°10' W 001°14'0 0.0
2017-Sep-12 04:29N 46°10' W 001°14'0 0.0
2017-Sep-12 03:59N 46°10' W 001°14'0 0.0
2017-Sep-12 03:29N 46°10' W 001°14'0 0.0
2017-Sep-12 02:59N 46°10' W 001°14'0 0.0
2017-Sep-12 02:29N 46°10' W 001°14'0 0.0
2017-Sep-12 01:59N 46°10' W 001°14'0 0.0
2017-Sep-12 01:29N 46°10' W 001°14'0 0.0
2017-Sep-12 00:59N 46°10' W 001°14'0 0.0
2017-Sep-12 00:29N 46°10' W 001°14'0 0.0
2017-Sep-11 23:59N 46°10' W 001°14'0 0.0
2017-Sep-11 23:29N 46°10' W 001°14'0 0.0
2017-Sep-11 22:59N 46°10' W 001°14'0 0.0
2017-Sep-11 22:29N 46°10' W 001°14'0 0.0
2017-Sep-11 21:59N 46°10' W 001°14'0 0.1
2017-Sep-11 21:31N 46°09' W 001°14'2 4.5
2017-Sep-11 21:01N 46°07' W 001°15'3 5.2
2017-Sep-11 20:31N 46°05' W 001°15'0 0.8
2017-Sep-11 19:58N 46°05' W 001°15'0 0.1
2017-Sep-11 19:28N 46°05' W 001°15'0 0.0
2017-Sep-11 18:58N 46°05' W 001°15'0 0.0
2017-Sep-11 18:28N 46°05' W 001°15'0 0.0
2017-Sep-11 17:58N 46°05' W 001°15'0 0.0
2017-Sep-11 17:28N 46°05' W 001°15'0 0.0
2017-Sep-11 16:52N 46°05' W 001°15'0 0.0
2017-Sep-11 16:28N 46°05' W 001°15'0 0.0
2017-Sep-11 15:58N 46°05' W 001°15'0 0.0
2017-Sep-11 15:28N 46°05' W 001°15'0 0.0
2017-Sep-11 14:55N 46°05' W 001°15'0 0.0
2017-Sep-11 14:28N 46°05' W 001°15'0 0.1
2017-Sep-11 13:58N 46°05' W 001°15'0 0.2
2017-Sep-11 13:26N 46°05' W 001°15'1 2.1
2017-Sep-11 13:00N 46°05' W 001°16'4 8.9
2017-Sep-11 12:30N 46°06' W 001°22'510.8
2017-Sep-11 12:00N 46°07' W 001°30'611.0
2017-Sep-11 11:30N 46°07' W 001°38'611.2
2017-Sep-11 11:00N 46°06' W 001°46'611.2
2017-Sep-11 10:30N 46°04' W 001°53'  
Track history (hours):
 
Tides and Currents Weather Stations Pressure Air Temp Water Temp Dewpoint Dewpoint Depression Visibility Wind Speed Wind Dir Waves Ship Positions

La Partenais

Last reported at 2017-Sep-20 12:10 UTC. Time now 2017-Nov-18 17:57 UTC.
Position N 26°19' W 016°03'.
Warning: this ship's position is 59 days out of date.

Length 180 m; draft 10.1 m.

Type: Cargo ship. MMSI: 256892000.

Date/timePositionNaut miles runAvg speedWind from/ knotsBaromVisibWave heightAir tempDewpointWater temp
2017-Sep-20 12:10N 26°19' W 016°03'5112.3
2017-Sep-20 08:00N 27°06' W 015°39'1512.7
2017-Sep-20 06:48N 27°20' W 015°32'2413.1
2017-Sep-20 04:58N 27°41' W 015°20'714.3
2017-Sep-20 04:29N 27°47' W 015°16'714.2
2017-Sep-20 04:00N 27°54' W 015°15'713.6
2017-Sep-20 03:30N 28°01' W 015°15'612.2
2017-Sep-20 03:00N 28°05' W 015°20'4 7.3
2017-Sep-20 02:30N 28°06' W 015°24'0 0.2
2017-Sep-20 01:49N 28°06' W 015°24'0 0.0
2017-Sep-20 01:31N 28°06' W 015°24'0 0.0
2017-Sep-20 01:01N 28°06' W 015°24'0 0.0
2017-Sep-20 00:31N 28°06' W 015°24'0 0.0
2017-Sep-19 23:52N 28°06' W 015°24'0 0.0
2017-Sep-19 23:22N 28°06' W 015°24'0 0.0
2017-Sep-19 22:52N 28°06' W 015°24'0 0.1
2017-Sep-19 22:25N 28°06' W 015°24'0 0.0
2017-Sep-19 21:55N 28°06' W 015°24'0 0.0
2017-Sep-19 21:25N 28°06' W 015°24'0 0.0
2017-Sep-19 20:55N 28°06' W 015°24'0 0.0
2017-Sep-19 20:25N 28°06' W 015°24'0 0.0
2017-Sep-19 19:43N 28°06' W 015°24'0 0.0
2017-Sep-19 19:28N 28°06' W 015°24'0 0.0
2017-Sep-19 18:58N 28°06' W 015°24'0 0.0
2017-Sep-19 18:28N 28°06' W 015°24'0 0.0
2017-Sep-19 17:58N 28°06' W 015°24'0 0.4
2017-Sep-19 17:30N 28°06' W 015°24'2 3.8
2017-Sep-19 17:00N 28°08' W 015°23'1 1.2
2017-Sep-19 16:30N 28°07' W 015°22'4 8.0
2017-Sep-19 16:00N 28°10' W 015°19'713.2
2017-Sep-19 15:30N 28°15' W 015°14'713.1
2017-Sep-19 15:00N 28°20' W 015°08'612.9
2017-Sep-19 14:30N 28°26' W 015°06'612.9
2017-Sep-19 14:00N 28°32' W 015°04'713.1
2017-Sep-19 13:30N 28°38' W 015°02'713.3
2017-Sep-19 13:00N 28°45' W 014°59'613.2
2017-Sep-19 12:31N 28°51' W 014°57'712.9
2017-Sep-19 12:00N 28°57' W 014°55'612.7
2017-Sep-19 11:30N 29°03' W 014°54'712.8
2017-Sep-19 10:58N 29°10' W 014°52'612.7
2017-Sep-19 10:30N 29°16' W 014°50'612.9
2017-Sep-19 10:00N 29°22' W 014°48'713.1
2017-Sep-19 09:30N 29°28' W 014°46'713.4
2017-Sep-19 09:00N 29°35' W 014°44'613.2
2017-Sep-19 08:30N 29°41' W 014°42'613.0
2017-Sep-19 08:00N 29°47' W 014°40'612.9
2017-Sep-19 07:30N 29°53' W 014°37'913.1
2017-Sep-19 06:49N 30°02' W 014°35'412.9
2017-Sep-19 06:30N 30°06' W 014°34'713.1
2017-Sep-19 06:00N 30°12' W 014°32'1013.1
2017-Sep-19 05:13N 30°22' W 014°29'513.2
2017-Sep-19 04:52N 30°27' W 014°27'4113.2
2017-Sep-19 01:43N 31°07' W 014°14'313.1
2017-Sep-19 01:31N 31°09' W 014°13'813.1
2017-Sep-19 00:52N 31°17' W 014°10'613.2
2017-Sep-19 00:27N 31°23' W 014°09'1813.6
2017-Sep-18 23:10N 31°40' W 014°03'513.4
2017-Sep-18 22:48N 31°44' W 014°01'  
2017-Sep-15 07:24N 46°03' W 001°55'711.8
2017-Sep-15 06:49N 46°06' W 001°46'411.5
2017-Sep-15 06:29N 46°07' W 001°41'511.1
2017-Sep-15 06:00N 46°07' W 001°33'612.1
2017-Sep-15 05:30N 46°07' W 001°25'510.8
2017-Sep-15 05:00N 46°06' W 001°17'4 7.1
2017-Sep-15 04:30N 46°09' W 001°14'1 1.0
2017-Sep-15 03:59N 46°10' W 001°14'0 0.0
2017-Sep-15 03:26N 46°10' W 001°14'0 0.0
2017-Sep-15 02:59N 46°10' W 001°14'0 0.0
2017-Sep-15 02:29N 46°10' W 001°14'0 0.0
2017-Sep-15 01:59N 46°10' W 001°14'0 0.0
2017-Sep-15 01:29N 46°10' W 001°14'0 0.0
2017-Sep-15 00:56N 46°10' W 001°14'0 0.0
2017-Sep-15 00:29N 46°10' W 001°14'0 0.0
2017-Sep-14 23:59N 46°10' W 001°14'0 0.0
2017-Sep-14 23:29N 46°10' W 001°14'0 0.0
2017-Sep-14 22:59N 46°10' W 001°14'0 0.0
2017-Sep-14 22:29N 46°10' W 001°14'0 0.0
2017-Sep-14 21:59N 46°10' W 001°14'0 0.0
2017-Sep-14 21:29N 46°10' W 001°14'0 0.0
2017-Sep-14 20:59N 46°10' W 001°14'0 0.0
2017-Sep-14 20:29N 46°10' W 001°14'0 0.0
2017-Sep-14 19:59N 46°10' W 001°14'0 0.0
2017-Sep-14 19:29N 46°10' W 001°14'0 0.0
2017-Sep-14 18:59N 46°10' W 001°14'0 0.0
2017-Sep-14 18:29N 46°10' W 001°14'0 0.0
2017-Sep-14 17:56N 46°10' W 001°14'0 0.0
2017-Sep-14 17:23N 46°10' W 001°14'0 0.0
2017-Sep-14 16:59N 46°10' W 001°14'0 0.0
2017-Sep-14 16:23N 46°10' W 001°14'0 0.0
2017-Sep-14 15:59N 46°10' W 001°14'0 0.0
2017-Sep-14 15:29N 46°10' W 001°14'0 0.0
2017-Sep-14 14:59N 46°10' W 001°14'0 0.0
2017-Sep-14 14:29N 46°10' W 001°14'0 0.0
2017-Sep-14 13:59N 46°10' W 001°14'0 0.0
2017-Sep-14 13:29N 46°10' W 001°14'0 0.0
2017-Sep-14 12:59N 46°10' W 001°14'0 0.0
2017-Sep-14 12:29N 46°10' W 001°14'0 0.0
2017-Sep-14 11:59N 46°10' W 001°14'0 0.0
2017-Sep-14 11:29N 46°10' W 001°14'0 0.0
2017-Sep-14 10:59N 46°10' W 001°14'0 0.0
2017-Sep-14 10:29N 46°10' W 001°14'0 0.0
2017-Sep-14 09:59N 46°10' W 001°14'0 0.0
2017-Sep-14 09:29N 46°10' W 001°14'0 0.0
2017-Sep-14 08:59N 46°10' W 001°14'0 0.0
2017-Sep-14 08:29N 46°10' W 001°14'0 0.0
2017-Sep-14 07:59N 46°10' W 001°14'0 0.0
2017-Sep-14 07:29N 46°10' W 001°14'0 0.0
2017-Sep-14 06:59N 46°09' W 001°14'0 0.0
2017-Sep-14 06:29N 46°10' W 001°14'0 0.0
2017-Sep-14 05:56N 46°10' W 001°14'0 0.0
2017-Sep-14 05:26N 46°10' W 001°14'0 0.0
2017-Sep-14 04:59N 46°10' W 001°14'0 0.0
2017-Sep-14 04:26N 46°10' W 001°14'0 0.0
2017-Sep-14 03:59N 46°09' W 001°14'0 0.0
2017-Sep-14 03:23N 46°09' W 001°14'0 0.0
2017-Sep-14 02:59N 46°10' W 001°14'0 0.0
2017-Sep-14 02:29N 46°10' W 001°14'0 0.0
2017-Sep-14 01:59N 46°10' W 001°14'0 0.0
2017-Sep-14 01:26N 46°10' W 001°14'0 0.0
2017-Sep-14 00:59N 46°10' W 001°14'0 0.0
2017-Sep-14 00:29N 46°10' W 001°14'0 0.0
2017-Sep-13 23:59N 46°10' W 001°14'0 0.0
2017-Sep-13 23:29N 46°10' W 001°14'0 0.0
2017-Sep-13 22:59N 46°10' W 001°14'0 0.0
2017-Sep-13 22:29N 46°10' W 001°14'0 0.0
2017-Sep-13 21:59N 46°09' W 001°14'0 0.0
2017-Sep-13 21:29N 46°10' W 001°14'0 0.0
2017-Sep-13 20:59N 46°10' W 001°14'0 0.0
2017-Sep-13 20:29N 46°10' W 001°14'0 0.0
2017-Sep-13 19:59N 46°10' W 001°14'0 0.0
2017-Sep-13 19:29N 46°09' W 001°14'0 0.0
2017-Sep-13 18:53N 46°10' W 001°14'0 0.0
2017-Sep-13 18:26N 46°10' W 001°14'0 0.0
2017-Sep-13 17:59N 46°10' W 001°14'0 0.0
2017-Sep-13 17:29N 46°10' W 001°14'0 0.0
2017-Sep-13 16:59N 46°10' W 001°14'0 0.0
2017-Sep-13 16:29N 46°10' W 001°14'0 0.0
2017-Sep-13 15:59N 46°10' W 001°14'0 0.0
2017-Sep-13 15:29N 46°10' W 001°14'0 0.0
2017-Sep-13 14:59N 46°10' W 001°14'0 0.0
2017-Sep-13 14:23N 46°10' W 001°14'0 0.0
2017-Sep-13 13:59N 46°10' W 001°14'0 0.0
2017-Sep-13 13:29N 46°10' W 001°14'0 0.0
2017-Sep-13 12:59N 46°10' W 001°14'0 0.0
2017-Sep-13 12:29N 46°09' W 001°14'0 0.0
2017-Sep-13 11:59N 46°10' W 001°14'0 0.0
2017-Sep-13 11:29N 46°10' W 001°14'0 0.0
2017-Sep-13 10:59N 46°10' W 001°14'0 0.0
2017-Sep-13 10:29N 46°10' W 001°14'0 0.0
2017-Sep-13 09:59N 46°10' W 001°14'0 0.0
2017-Sep-13 09:26N 46°10' W 001°14'0 0.0
2017-Sep-13 08:59N 46°10' W 001°14'0 0.0
2017-Sep-13 08:29N 46°10' W 001°14'0 0.0
2017-Sep-13 07:59N 46°10' W 001°14'0 0.0
2017-Sep-13 07:29N 46°10' W 001°14'0 0.0
2017-Sep-13 06:59N 46°10' W 001°14'0 0.0
2017-Sep-13 06:29N 46°10' W 001°14'0 0.0
2017-Sep-13 05:59N 46°10' W 001°14'0 0.0
2017-Sep-13 05:29N 46°10' W 001°14'0 0.0
2017-Sep-13 04:59N 46°10' W 001°14'0 0.0
2017-Sep-13 04:29N 46°10' W 001°14'0 0.0
2017-Sep-13 03:59N 46°10' W 001°14'0 0.0
2017-Sep-13 03:29N 46°10' W 001°14'0 0.0
2017-Sep-13 02:59N 46°10' W 001°14'0 0.0
2017-Sep-13 02:29N 46°10' W 001°14'0 0.0
2017-Sep-13 01:59N 46°10' W 001°14'0 0.0
2017-Sep-13 01:29N 46°10' W 001°14'0 0.0
2017-Sep-13 00:59N 46°10' W 001°14'0 0.0
2017-Sep-13 00:26N 46°10' W 001°14'0 0.0
2017-Sep-12 23:59N 46°10' W 001°14'0 0.0
2017-Sep-12 23:29N 46°10' W 001°14'0 0.0
2017-Sep-12 22:59N 46°10' W 001°14'0 0.0
2017-Sep-12 22:29N 46°10' W 001°14'0 0.0
2017-Sep-12 21:59N 46°10' W 001°14'0 0.0
2017-Sep-12 21:29N 46°10' W 001°14'0 0.0
2017-Sep-12 20:59N 46°10' W 001°14'0 0.0
2017-Sep-12 20:29N 46°10' W 001°14'0 0.0
2017-Sep-12 19:59N 46°10' W 001°14'0 0.0
2017-Sep-12 19:29N 46°10' W 001°14'0 0.0
2017-Sep-12 18:59N 46°10' W 001°14'0 0.0
2017-Sep-12 18:29N 46°10' W 001°14'0 0.0
2017-Sep-12 17:59N 46°09' W 001°14'0 0.0
2017-Sep-12 17:14N 46°10' W 001°14'0 0.0
2017-Sep-12 16:56N 46°10' W 001°14'0 0.0
2017-Sep-12 16:29N 46°10' W 001°14'0 0.0
2017-Sep-12 15:56N 46°10' W 001°14'0 0.0
2017-Sep-12 15:26N 46°10' W 001°14'0 0.0
2017-Sep-12 14:59N 46°10' W 001°14'0 0.0
2017-Sep-12 14:29N 46°10' W 001°14'0 0.0
2017-Sep-12 13:59N 46°10' W 001°14'0 0.0
2017-Sep-12 13:29N 46°10' W 001°14'0 0.0
2017-Sep-12 12:59N 46°10' W 001°14'0 0.0
2017-Sep-12 12:29N 46°10' W 001°14'0 0.0
2017-Sep-12 11:59N 46°10' W 001°14'0 0.0
2017-Sep-12 11:26N 46°10' W 001°14'0 0.0
2017-Sep-12 10:59N 46°10' W 001°14'0 0.0
2017-Sep-12 10:26N 46°10' W 001°14'0 0.0
2017-Sep-12 09:59N 46°10' W 001°14'0 0.0
2017-Sep-12 09:29N 46°10' W 001°14'0 0.0
2017-Sep-12 08:59N 46°10' W 001°14'0 0.0
2017-Sep-12 08:29N 46°10' W 001°14'0 0.0
2017-Sep-12 07:59N 46°10' W 001°14'0 0.0
2017-Sep-12 07:29N 46°10' W 001°14'0 0.0
2017-Sep-12 06:59N 46°09' W 001°14'0 0.0
2017-Sep-12 06:29N 46°10' W 001°14'0 0.0
2017-Sep-12 05:59N 46°10' W 001°14'0 0.0
2017-Sep-12 05:29N 46°10' W 001°14'0 0.0
2017-Sep-12 04:59N 46°10' W 001°14'0 0.0
2017-Sep-12 04:29N 46°10' W 001°14'0 0.0
2017-Sep-12 03:59N 46°10' W 001°14'0 0.0
2017-Sep-12 03:29N 46°10' W 001°14'0 0.0
2017-Sep-12 02:59N 46°10' W 001°14'0 0.0
2017-Sep-12 02:29N 46°10' W 001°14'0 0.0
2017-Sep-12 01:59N 46°10' W 001°14'0 0.0
2017-Sep-12 01:29N 46°10' W 001°14'0 0.0
2017-Sep-12 00:59N 46°10' W 001°14'0 0.0
2017-Sep-12 00:29N 46°10' W 001°14'0 0.0
2017-Sep-11 23:59N 46°10' W 001°14'0 0.0
2017-Sep-11 23:29N 46°10' W 001°14'0 0.0
2017-Sep-11 22:59N 46°10' W 001°14'0 0.0
2017-Sep-11 22:29N 46°10' W 001°14'0 0.0
2017-Sep-11 21:59N 46°10' W 001°14'0 0.1
2017-Sep-11 21:31N 46°09' W 001°14'2 4.5
2017-Sep-11 21:01N 46°07' W 001°15'3 5.2
2017-Sep-11 20:31N 46°05' W 001°15'0 0.8
2017-Sep-11 19:58N 46°05' W 001°15'0 0.1
2017-Sep-11 19:28N 46°05' W 001°15'0 0.0
2017-Sep-11 18:58N 46°05' W 001°15'0 0.0
2017-Sep-11 18:28N 46°05' W 001°15'0 0.0
2017-Sep-11 17:58N 46°05' W 001°15'0 0.0
2017-Sep-11 17:28N 46°05' W 001°15'0 0.0
2017-Sep-11 16:52N 46°05' W 001°15'0 0.0
2017-Sep-11 16:28N 46°05' W 001°15'0 0.0
2017-Sep-11 15:58N 46°05' W 001°15'0 0.0
2017-Sep-11 15:28N 46°05' W 001°15'0 0.0
2017-Sep-11 14:55N 46°05' W 001°15'0 0.0
2017-Sep-11 14:28N 46°05' W 001°15'0 0.1
2017-Sep-11 13:58N 46°05' W 001°15'0 0.2
2017-Sep-11 13:26N 46°05' W 001°15'1 2.1
2017-Sep-11 13:00N 46°05' W 001°16'4 8.9
2017-Sep-11 12:30N 46°06' W 001°22'510.8
2017-Sep-11 12:00N 46°07' W 001°30'611.0
2017-Sep-11 11:30N 46°07' W 001°38'611.2
2017-Sep-11 11:00N 46°06' W 001°46'611.2
2017-Sep-11 10:30N 46°04' W 001°53'  

Dump ship's entire track history